createdAt,value
2023-05-06T00:00:41.058Z,10.48
2023-05-06T00:02:42.720Z,10.95
2023-05-06T00:04:44.411Z,10.75
2023-05-06T00:06:46.024Z,11.32
2023-05-06T00:08:47.562Z,12.07
2023-05-06T00:10:49.135Z,10.57
2023-05-06T00:12:51.195Z,11.77
2023-05-06T00:14:52.863Z,11.88
2023-05-06T00:16:54.525Z,11.88
2023-05-06T00:18:56.399Z,10.80
2023-05-06T00:20:57.898Z,13.35
2023-05-06T00:22:59.477Z,11.88
2023-05-06T00:25:01.077Z,13.60
2023-05-06T00:27:02.782Z,12.65
2023-05-06T00:29:04.354Z,11.23
2023-05-06T00:31:06.135Z,11.30
2023-05-06T00:33:07.872Z,12.35
2023-05-06T00:35:09.954Z,12.27
2023-05-06T00:37:11.840Z,12.63
2023-05-06T00:39:13.363Z,12.23
2023-05-06T00:41:14.969Z,12.05
2023-05-06T00:43:16.593Z,12.27
2023-05-06T00:45:18.302Z,13.07
2023-05-06T00:47:22.018Z,12.52
2023-05-06T00:49:23.823Z,12.45
2023-05-06T00:51:26.544Z,12.18
2023-05-06T00:53:28.201Z,13.18
2023-05-06T00:55:31.244Z,13.43
2023-05-06T00:57:32.892Z,14.50
2023-05-06T00:59:34.479Z,15.43
2023-05-06T01:01:37.556Z,14.77
2023-05-06T01:03:39.716Z,14.40
2023-05-06T01:06:24.674Z,14.13
2023-05-06T01:09:03.432Z,13.70
2023-05-06T01:11:16.082Z,13.70
2023-05-06T01:13:29.747Z,14.77
2023-05-06T01:15:36.660Z,14.02
2023-05-06T01:17:45.407Z,14.18
2023-05-06T01:19:53.461Z,13.55
2023-05-06T01:21:56.712Z,12.88
2023-05-06T01:23:58.751Z,11.82
2023-05-06T01:26:00.737Z,12.45
2023-05-06T01:28:02.273Z,11.75
2023-05-06T01:30:04.209Z,12.10
2023-05-06T01:32:23.097Z,11.90
2023-05-06T01:34:43.402Z,11.40
2023-05-06T01:37:32.787Z,13.15
2023-05-06T01:39:34.569Z,12.27
2023-05-06T01:41:40.795Z,11.00
2023-05-06T01:43:44.739Z,11.80
2023-05-06T01:45:53.407Z,11.57
2023-05-06T01:47:56.874Z,12.05
2023-05-06T01:49:58.650Z,12.25
2023-05-06T01:52:03.731Z,11.93
2023-05-06T01:54:05.467Z,12.65
2023-05-06T01:56:07.272Z,12.02
2023-05-06T01:58:08.836Z,11.52
2023-05-06T02:00:10.907Z,11.65
2023-05-06T02:02:12.597Z,11.98
2023-05-06T02:04:14.824Z,13.38
2023-05-06T02:06:16.500Z,11.88
2023-05-06T02:08:18.040Z,11.77
2023-05-06T02:10:19.603Z,12.07
2023-05-06T02:12:21.149Z,11.15
2023-05-06T02:14:22.672Z,10.77
2023-05-06T02:16:28.224Z,11.18
2023-05-06T02:18:29.905Z,11.45
2023-05-06T02:20:31.405Z,11.07
2023-05-06T02:22:32.997Z,10.98
2023-05-06T02:24:34.502Z,11.13
2023-05-06T02:26:36.122Z,11.68
2023-05-06T02:28:37.778Z,11.18
2023-05-06T02:30:39.320Z,11.90
2023-05-06T02:32:41.549Z,11.80
2023-05-06T02:34:43.089Z,11.88
2023-05-06T02:36:44.705Z,11.52
2023-05-06T02:38:46.214Z,11.07
2023-05-06T02:40:47.802Z,12.20
2023-05-06T02:42:49.504Z,11.98
2023-05-06T02:44:51.471Z,11.57
2023-05-06T02:46:52.963Z,12.25
2023-05-06T02:48:54.483Z,11.77
2023-05-06T02:50:55.994Z,12.30
2023-05-06T02:52:57.510Z,11.05
2023-05-06T02:54:59.129Z,12.02
2023-05-06T02:57:01.220Z,11.50
2023-05-06T02:59:03.384Z,11.02
2023-05-06T03:01:04.987Z,11.27
2023-05-06T03:03:06.749Z,10.88
2023-05-06T03:05:09.019Z,10.90
2023-05-06T03:07:10.823Z,10.48
2023-05-06T03:09:12.343Z,9.90
2023-05-06T03:11:13.857Z,10.35
2023-05-06T03:13:15.498Z,9.35
2023-05-06T03:15:17.220Z,9.65
2023-05-06T03:17:18.788Z,9.15
2023-05-06T03:19:20.712Z,10.07
2023-05-06T03:21:22.375Z,8.40
2023-05-06T03:23:23.983Z,8.52
2023-05-06T03:25:25.559Z,9.07
2023-05-06T03:27:27.380Z,8.98
2023-05-06T03:29:28.920Z,8.93
2023-05-06T03:31:30.553Z,9.00
2023-05-06T03:33:32.130Z,8.48
2023-05-06T03:35:33.683Z,7.82
2023-05-06T03:37:35.239Z,7.47
2023-05-06T03:39:36.758Z,6.97
2023-05-06T03:41:38.393Z,8.02
2023-05-06T03:43:39.954Z,7.22
2023-05-06T03:45:41.575Z,7.47
2023-05-06T03:47:43.201Z,7.32
2023-05-06T03:49:44.759Z,7.25
2023-05-06T03:51:46.429Z,6.50
2023-05-06T03:53:48.296Z,7.82
2023-05-06T03:55:49.803Z,7.50
2023-05-06T03:57:51.334Z,7.55
2023-05-06T03:59:52.910Z,6.85
2023-05-06T04:01:54.499Z,6.75
2023-05-06T04:03:56.143Z,6.97
2023-05-06T04:05:57.662Z,6.30
2023-05-06T04:07:59.189Z,6.35
2023-05-06T04:10:00.785Z,6.65
2023-05-06T04:12:03.645Z,6.25
2023-05-06T04:14:05.187Z,6.13
2023-05-06T04:16:06.889Z,5.55
2023-05-06T04:18:08.453Z,5.82
2023-05-06T04:20:10.906Z,6.53
2023-05-06T04:22:12.418Z,6.15
2023-05-06T04:24:15.953Z,5.75
2023-05-06T04:26:17.505Z,5.85
2023-05-06T04:28:19.114Z,5.78
2023-05-06T04:30:21.274Z,5.45
2023-05-06T04:32:25.327Z,5.30
2023-05-06T04:34:27.805Z,5.68
2023-05-06T04:36:29.541Z,5.28
2023-05-06T04:38:32.175Z,5.07
2023-05-06T04:40:36.533Z,5.05
2023-05-06T04:42:38.146Z,5.35
2023-05-06T04:44:40.023Z,5.53
2023-05-06T04:46:41.795Z,5.35
2023-05-06T04:48:43.420Z,5.18
2023-05-06T04:50:45.854Z,4.95
2023-05-06T04:52:47.517Z,5.13
2023-05-06T04:54:49.105Z,4.93
2023-05-06T04:56:50.996Z,5.70
2023-05-06T04:58:52.684Z,6.53
2023-05-06T05:00:54.506Z,5.68
2023-05-06T05:02:56.199Z,6.18
2023-05-06T05:04:57.890Z,5.88
2023-05-06T05:06:59.440Z,5.60
2023-05-06T05:09:01.203Z,6.32
2023-05-06T05:11:02.815Z,6.38
2023-05-06T05:13:04.548Z,6.03
2023-05-06T05:15:06.738Z,6.75
2023-05-06T05:17:08.587Z,6.13
2023-05-06T05:19:10.220Z,6.00
2023-05-06T05:21:11.811Z,5.55
2023-05-06T05:23:13.358Z,5.93
2023-05-06T05:25:14.951Z,5.75
2023-05-06T05:27:16.555Z,5.97
2023-05-06T05:29:18.259Z,6.60
2023-05-06T05:31:19.954Z,6.05
2023-05-06T05:33:21.659Z,5.93
2023-05-06T05:35:23.270Z,5.55
2023-05-06T05:37:24.837Z,5.72
2023-05-06T05:39:26.405Z,6.05
2023-05-06T05:41:27.948Z,5.80
2023-05-06T05:43:31.409Z,6.40
2023-05-06T05:45:33.083Z,6.10
2023-05-06T05:47:34.755Z,6.03
2023-05-06T05:49:36.408Z,6.05
2023-05-06T05:51:37.932Z,6.13
2023-05-06T05:53:39.484Z,6.20
2023-05-06T05:55:41.070Z,5.63
2023-05-06T05:57:42.620Z,6.43
2023-05-06T05:59:44.224Z,6.13
2023-05-06T06:01:45.883Z,6.22
2023-05-06T06:03:47.739Z,6.45
2023-05-06T06:05:49.609Z,6.63
2023-05-06T06:07:51.190Z,7.30
2023-05-06T06:09:52.696Z,7.05
2023-05-06T06:11:54.568Z,6.57
2023-05-06T06:13:56.173Z,8.10
2023-05-06T06:15:57.951Z,7.03
2023-05-06T06:17:59.581Z,8.05
2023-05-06T06:20:01.347Z,7.88
2023-05-06T06:22:02.939Z,7.90
2023-05-06T06:24:05.008Z,8.38
2023-05-06T06:26:06.592Z,8.32
2023-05-06T06:28:08.152Z,7.65
2023-05-06T06:30:10.019Z,7.75
2023-05-06T06:32:11.676Z,7.60
2023-05-06T06:34:13.329Z,6.97
2023-05-06T06:36:14.903Z,6.88
2023-05-06T06:38:18.868Z,7.18
2023-05-06T06:40:21.601Z,7.22
2023-05-06T06:42:23.265Z,7.00
2023-05-06T06:44:25.057Z,7.93
2023-05-06T06:46:26.565Z,8.70
2023-05-06T06:48:28.102Z,7.30
2023-05-06T06:50:29.649Z,7.70
2023-05-06T06:52:31.274Z,8.50
2023-05-06T06:54:33.080Z,7.75
2023-05-06T06:56:34.599Z,8.35
2023-05-06T06:58:36.126Z,7.60
2023-05-06T07:00:37.731Z,7.63
2023-05-06T07:02:39.436Z,7.95
2023-05-06T07:04:41.136Z,7.72
2023-05-06T07:06:42.695Z,8.48
2023-05-06T07:08:44.347Z,8.93
2023-05-06T07:10:45.876Z,8.93
2023-05-06T07:12:47.663Z,8.88
2023-05-06T07:14:49.177Z,9.10
2023-05-06T07:16:51.556Z,9.68
2023-05-06T07:18:53.893Z,9.07
2023-05-06T07:20:55.471Z,9.48
2023-05-06T07:22:56.983Z,9.07
2023-05-06T07:24:58.646Z,10.02
2023-05-06T07:27:01.516Z,9.45
2023-05-06T07:29:04.308Z,9.55
2023-05-06T07:31:05.931Z,8.77
2023-05-06T07:33:07.748Z,9.23
2023-05-06T07:35:10.103Z,8.95
2023-05-06T07:37:11.899Z,8.88
2023-05-06T07:39:13.967Z,8.48
2023-05-06T07:41:15.543Z,8.65
2023-05-06T07:43:17.288Z,8.57
2023-05-06T07:45:20.237Z,8.57
2023-05-06T07:47:32.198Z,8.27
2023-05-06T07:49:35.205Z,8.45
2023-05-06T07:51:36.844Z,8.60
2023-05-06T07:53:40.154Z,7.88
2023-05-06T07:55:41.872Z,8.85
2023-05-06T07:57:43.436Z,8.30
2023-05-06T07:59:48.212Z,8.43
2023-05-06T08:01:49.782Z,8.80
2023-05-06T08:03:51.436Z,8.50
2023-05-06T08:05:53.609Z,8.65
2023-05-06T08:07:55.803Z,7.85
2023-05-06T08:09:57.738Z,7.45
2023-05-06T08:11:59.339Z,6.90
2023-05-06T08:14:00.855Z,7.60
2023-05-06T08:16:02.631Z,7.80
2023-05-06T08:18:21.035Z,8.05
2023-05-06T08:22:25.142Z,6.88
2023-05-06T08:24:26.950Z,7.22
2023-05-06T08:26:28.606Z,5.93
2023-05-06T08:28:30.188Z,6.68
2023-05-06T08:30:31.811Z,6.68
2023-05-06T08:32:33.372Z,6.63
2023-05-06T08:34:35.045Z,6.20
2023-05-06T08:36:36.649Z,6.15
2023-05-06T08:38:38.176Z,6.75
2023-05-06T08:43:13.775Z,5.18
2023-05-06T08:45:17.641Z,6.13
2023-05-06T08:47:21.003Z,6.05
2023-05-06T08:49:23.029Z,5.35
2023-05-06T08:51:28.623Z,5.20
2023-05-06T08:53:31.384Z,5.18
2023-05-06T08:55:34.151Z,5.18
2023-05-06T08:57:36.969Z,5.20
2023-05-06T08:59:38.664Z,5.35
2023-05-06T09:01:40.515Z,5.28
2023-05-06T09:03:42.236Z,4.82
2023-05-06T09:05:43.845Z,4.50
2023-05-06T09:07:45.376Z,4.57
2023-05-06T09:09:47.499Z,4.65
2023-05-06T09:11:54.152Z,4.00
2023-05-06T09:16:10.594Z,4.50
2023-05-06T09:18:12.211Z,4.53
2023-05-06T09:20:13.786Z,4.38
2023-05-06T09:22:15.498Z,4.55
2023-05-06T09:24:17.973Z,4.20
2023-05-06T09:26:19.499Z,3.85
2023-05-06T09:28:21.134Z,3.28
2023-05-06T09:30:22.657Z,3.63
2023-05-06T09:32:24.466Z,3.65
2023-05-06T09:34:27.520Z,3.35
2023-05-06T09:36:29.129Z,3.65
2023-05-06T09:38:31.393Z,3.28
2023-05-06T09:40:33.435Z,3.40
2023-05-06T09:42:35.128Z,3.15
2023-05-06T09:44:37.833Z,3.83
2023-05-06T09:46:40.849Z,3.15
2023-05-06T09:48:42.960Z,3.15
2023-05-06T09:50:44.556Z,3.22
2023-05-06T09:52:46.379Z,2.70
2023-05-06T09:54:51.471Z,3.20
2023-05-06T09:56:55.316Z,2.50
2023-05-06T09:59:01.212Z,2.30
2023-05-06T10:01:05.059Z,2.40
2023-05-06T10:03:07.158Z,2.42
2023-05-06T10:05:09.894Z,2.53
2023-05-06T10:07:15.307Z,2.42
2023-05-06T10:09:18.262Z,2.80
2023-05-06T10:11:21.435Z,2.38
2023-05-06T10:13:26.864Z,2.58
2023-05-06T10:15:28.565Z,2.45
2023-05-06T10:17:31.872Z,2.30
2023-05-06T10:19:34.763Z,2.20
2023-05-06T10:21:40.303Z,2.55
2023-05-06T10:23:52.169Z,2.30
2023-05-06T10:25:57.154Z,2.75
2023-05-06T10:27:59.878Z,2.80
2023-05-06T10:30:01.855Z,2.70
2023-05-06T10:32:04.203Z,2.53
2023-05-06T10:34:08.071Z,2.17
2023-05-06T10:36:21.336Z,2.08
2023-05-06T10:38:41.534Z,1.90
2023-05-06T10:40:44.256Z,2.20
2023-05-06T10:42:45.857Z,1.88
2023-05-06T10:45:04.509Z,1.90
2023-05-06T10:47:06.018Z,1.60
2023-05-06T10:49:13.823Z,1.80
2023-05-06T10:51:22.676Z,1.63
2023-05-06T10:54:05.521Z,1.40
2023-05-06T10:56:09.107Z,1.50
2023-05-06T10:58:15.458Z,1.77
2023-05-06T11:00:18.720Z,1.52
2023-05-06T11:02:20.852Z,1.95
2023-05-06T11:04:23.260Z,2.17
2023-05-06T11:06:46.256Z,1.48
2023-05-06T11:08:57.259Z,1.85
2023-05-06T11:10:58.803Z,1.40
2023-05-06T11:13:30.473Z,1.30
2023-05-06T11:15:40.471Z,1.33
2023-05-06T11:17:42.104Z,1.58
2023-05-06T11:19:43.772Z,1.52
2023-05-06T11:21:45.508Z,1.58
2023-05-06T11:23:47.146Z,1.67
2023-05-06T11:25:49.332Z,1.23
2023-05-06T11:27:51.088Z,1.23
2023-05-06T11:29:53.371Z,1.60
2023-05-06T11:31:54.982Z,1.42
2023-05-06T11:33:59.658Z,1.10
2023-05-06T11:36:02.163Z,1.40
2023-05-06T11:38:04.634Z,1.88
2023-05-06T11:40:14.179Z,1.63
2023-05-06T11:42:23.818Z,1.60
2023-05-06T11:44:27.439Z,1.23
2023-05-06T11:46:32.218Z,1.30
2023-05-06T11:48:33.799Z,1.50
2023-05-06T11:50:35.835Z,1.42
2023-05-06T11:52:37.432Z,1.30
2023-05-06T11:54:41.008Z,1.60
2023-05-06T11:56:45.048Z,1.40
2023-05-06T11:58:46.589Z,1.75
2023-05-06T12:00:51.938Z,1.30
2023-05-06T12:02:56.863Z,1.70
2023-05-06T12:04:58.633Z,1.33
2023-05-06T12:07:00.342Z,1.33
2023-05-06T12:09:07.456Z,1.50
2023-05-06T12:11:11.220Z,3.10
2023-05-06T12:13:14.968Z,2.50
2023-05-06T12:15:16.813Z,2.60
2023-05-06T12:17:19.098Z,2.97
2023-05-06T12:19:21.427Z,2.75
2023-05-06T12:21:24.661Z,3.20
2023-05-06T12:23:26.209Z,2.97
2023-05-06T12:25:27.886Z,2.30
2023-05-06T12:27:29.459Z,2.38
2023-05-06T12:29:33.885Z,2.22
2023-05-06T12:31:35.877Z,1.95
2023-05-06T12:33:49.093Z,2.15
2023-05-06T12:35:57.016Z,2.25
2023-05-06T12:38:12.244Z,2.13
2023-05-06T12:40:18.104Z,1.98
2023-05-06T12:42:21.283Z,2.50
2023-05-06T12:44:41.540Z,2.22
2023-05-06T12:46:50.708Z,2.13
2023-05-06T12:49:03.517Z,1.80
2023-05-06T12:51:21.594Z,1.83
2023-05-06T12:53:34.947Z,2.20
2023-05-06T12:55:38.251Z,2.53
2023-05-06T12:57:39.759Z,2.50
2023-05-06T12:59:43.564Z,2.03
2023-05-06T13:01:45.095Z,1.95
2023-05-06T13:03:46.669Z,1.92
2023-05-06T13:05:50.126Z,2.13
2023-05-06T13:07:51.864Z,2.92
2023-05-06T13:09:53.370Z,2.20
2023-05-06T13:11:55.259Z,2.22
2023-05-06T13:13:56.788Z,1.90
2023-05-06T13:15:58.563Z,1.42
2023-05-06T13:18:00.116Z,1.52
2023-05-06T13:20:04.438Z,1.60
2023-05-06T13:22:06.750Z,1.80
2023-05-06T13:24:09.231Z,2.28
2023-05-06T13:26:10.844Z,2.28
2023-05-06T13:28:12.350Z,1.80
2023-05-06T13:30:14.046Z,1.63
2023-05-06T13:32:16.428Z,1.80
2023-05-06T13:34:18.264Z,1.80
2023-05-06T13:36:19.769Z,1.52
2023-05-06T13:38:22.809Z,1.52
2023-05-06T13:40:24.405Z,1.80
2023-05-06T13:42:25.938Z,1.60
2023-05-06T13:44:27.715Z,1.30
2023-05-06T13:46:29.423Z,1.33
2023-05-06T13:48:31.160Z,1.13
2023-05-06T13:50:32.661Z,1.20
2023-05-06T13:52:34.221Z,1.50
2023-05-06T13:54:35.925Z,1.60
2023-05-06T13:56:37.685Z,2.03
2023-05-06T13:58:39.536Z,1.35
2023-05-06T14:00:41.074Z,1.30
2023-05-06T14:02:42.721Z,1.60
2023-05-06T14:04:44.519Z,1.50
2023-05-06T14:06:46.083Z,1.42
2023-05-06T14:08:47.984Z,1.50
2023-05-06T14:10:49.583Z,1.73
2023-05-06T14:12:51.335Z,1.88
2023-05-06T14:14:52.994Z,1.80
2023-05-06T14:16:55.645Z,1.50
2023-05-06T14:18:57.246Z,1.50
2023-05-06T14:20:58.784Z,2.45
2023-05-06T14:23:00.412Z,1.27
2023-05-06T14:25:02.077Z,1.73
2023-05-06T14:27:04.265Z,1.63
2023-05-06T14:29:05.932Z,1.70
2023-05-06T14:31:07.474Z,1.52
2023-05-06T14:33:09.744Z,1.65
2023-05-06T14:35:11.588Z,1.75
2023-05-06T14:37:13.399Z,1.98
2023-05-06T14:39:14.986Z,1.90
2023-05-06T14:41:16.558Z,2.03
2023-05-06T14:43:18.102Z,1.73
2023-05-06T14:45:20.354Z,2.00
2023-05-06T14:47:22.099Z,1.67
2023-05-06T14:49:23.686Z,1.80
2023-05-06T14:51:25.393Z,1.48
2023-05-06T14:53:26.992Z,2.00
2023-05-06T14:55:28.538Z,1.65
2023-05-06T14:57:30.071Z,1.90
2023-05-06T14:59:31.678Z,1.77
2023-05-06T15:01:33.757Z,1.65
2023-05-06T15:03:36.322Z,1.80
2023-05-06T15:05:38.124Z,1.50
2023-05-06T15:07:39.791Z,1.60
2023-05-06T15:09:43.968Z,1.83
2023-05-06T15:11:45.892Z,1.58
2023-05-06T15:13:47.437Z,1.80
2023-05-06T15:15:49.031Z,1.52
2023-05-06T15:17:52.383Z,1.65
2023-05-06T15:19:54.113Z,1.73
2023-05-06T15:21:56.254Z,1.77
2023-05-06T15:23:57.792Z,1.75
2023-05-06T15:25:59.369Z,1.60
2023-05-06T15:28:00.960Z,2.22
2023-05-06T15:30:04.308Z,1.65
2023-05-06T15:32:06.481Z,1.65
2023-05-06T15:34:09.872Z,2.08
2023-05-06T15:36:11.404Z,1.80
2023-05-06T15:38:13.013Z,1.88
2023-05-06T15:40:14.958Z,1.80
2023-05-06T15:42:17.287Z,1.52
2023-05-06T15:44:20.967Z,1.50
2023-05-06T15:46:23.038Z,2.03
2023-05-06T15:48:24.621Z,1.70
2023-05-06T15:52:33.130Z,1.50
2023-05-06T15:54:37.553Z,1.70
2023-05-06T15:56:41.423Z,1.65
2023-05-06T15:58:44.025Z,1.95
2023-05-06T16:00:45.701Z,1.80
2023-05-06T16:02:47.431Z,1.48
2023-05-06T16:04:49.242Z,1.70
2023-05-06T16:06:51.033Z,0.93
2023-05-06T16:08:52.638Z,0.85
2023-05-06T16:10:54.389Z,1.02
2023-05-06T16:12:56.006Z,0.80
2023-05-06T16:14:58.902Z,0.65
2023-05-06T16:17:00.494Z,2.30
2023-05-06T16:19:02.024Z,2.83
2023-05-06T16:21:04.516Z,2.30
2023-05-06T16:23:06.217Z,2.30
2023-05-06T16:25:08.249Z,2.30
2023-05-06T16:27:09.810Z,2.67
2023-05-06T16:29:11.489Z,1.92
2023-05-06T16:31:13.068Z,2.05
2023-05-06T16:33:14.779Z,1.65
2023-05-06T16:35:17.539Z,1.40
2023-05-06T16:37:19.072Z,1.50
2023-05-06T16:39:20.584Z,1.63
2023-05-06T16:41:22.141Z,1.48
2023-05-06T16:43:23.666Z,1.25
2023-05-06T16:45:25.290Z,1.33
2023-05-06T16:47:26.953Z,1.17
2023-05-06T16:49:28.713Z,1.20
2023-05-06T16:51:30.337Z,1.02
2023-05-06T16:53:34.833Z,1.00
2023-05-06T16:55:39.688Z,0.93
2023-05-06T16:57:41.470Z,1.17
2023-05-06T16:59:43.318Z,2.85
2023-05-06T17:01:45.014Z,1.35
2023-05-06T17:03:46.557Z,3.30
2023-05-06T17:05:48.152Z,3.30
2023-05-06T17:07:50.698Z,2.10
2023-05-06T17:09:52.607Z,1.60
2023-05-06T17:11:54.144Z,5.05
2023-05-06T17:13:55.894Z,12.63
2023-05-06T17:15:57.481Z,2.90
2023-05-06T17:17:59.604Z,1.63
2023-05-06T17:20:01.288Z,1.55
2023-05-06T17:22:02.873Z,1.67
2023-05-06T17:24:04.847Z,1.70
2023-05-06T17:26:10.029Z,1.90
2023-05-06T17:28:12.127Z,1.75
2023-05-06T17:30:15.049Z,1.38
2023-05-06T17:32:18.201Z,1.52
2023-05-06T17:36:21.901Z,1.60
2023-05-06T17:38:23.403Z,1.50
2023-05-06T17:40:24.958Z,1.45
2023-05-06T17:42:27.539Z,1.75
2023-05-06T17:44:29.190Z,1.38
2023-05-06T17:46:31.377Z,1.50
2023-05-06T17:48:32.984Z,1.75
2023-05-06T17:50:34.539Z,1.90
2023-05-06T17:52:36.066Z,1.58
2023-05-06T17:54:38.327Z,1.83
2023-05-06T17:56:41.074Z,1.73
2023-05-06T17:58:42.577Z,1.88
2023-05-06T18:00:44.116Z,1.73
2023-05-06T18:02:45.722Z,1.50
2023-05-06T18:04:47.503Z,1.33
2023-05-06T18:06:49.082Z,1.85
2023-05-06T18:08:50.707Z,1.20
2023-05-06T18:10:52.271Z,1.20
2023-05-06T18:12:55.530Z,1.30
2023-05-06T18:14:57.909Z,1.38
2023-05-06T18:16:59.558Z,1.70
2023-05-06T18:19:03.364Z,1.00
2023-05-06T18:21:04.910Z,1.13
2023-05-06T18:23:08.188Z,1.70
2023-05-06T18:25:10.266Z,1.17
2023-05-06T18:27:13.038Z,1.38
2023-05-06T18:29:14.669Z,1.20
2023-05-06T18:31:16.223Z,1.08
2023-05-06T18:33:17.892Z,1.10
2023-05-06T18:35:19.624Z,1.00
2023-05-06T18:37:21.197Z,1.23
2023-05-06T18:39:23.171Z,1.05
2023-05-06T18:41:25.072Z,0.98
2023-05-06T18:43:26.619Z,1.10
2023-05-06T18:45:29.487Z,1.25
2023-05-06T18:47:32.250Z,1.20
2023-05-06T18:49:35.324Z,1.30
2023-05-06T18:51:37.505Z,1.02
2023-05-06T18:53:39.959Z,1.00
2023-05-06T18:55:41.840Z,1.25
2023-05-06T18:57:44.059Z,1.33
2023-05-06T18:59:45.965Z,1.20
2023-05-06T19:01:47.636Z,1.65
2023-05-06T19:03:49.305Z,1.23
2023-05-06T19:05:51.208Z,1.13
2023-05-06T19:07:52.779Z,1.40
2023-05-06T19:09:54.963Z,1.42
2023-05-06T19:11:56.598Z,1.35
2023-05-06T19:13:58.158Z,1.48
2023-05-06T19:15:59.667Z,1.55
2023-05-06T19:18:02.379Z,2.03
2023-05-06T19:20:04.368Z,1.67
2023-05-06T19:22:05.963Z,1.50
2023-05-06T19:24:07.548Z,1.63
2023-05-06T19:26:11.249Z,1.70
2023-05-06T19:28:12.905Z,1.75
2023-05-06T19:30:14.598Z,1.63
2023-05-06T19:32:16.148Z,1.80
2023-05-06T19:34:17.681Z,1.80
2023-05-06T19:36:19.277Z,1.60
2023-05-06T19:38:21.328Z,1.63
2023-05-06T19:40:23.031Z,1.52
2023-05-06T19:42:24.621Z,2.00
2023-05-06T19:44:26.214Z,1.70
2023-05-06T19:46:27.830Z,2.33
2023-05-06T19:48:29.890Z,2.00
2023-05-06T19:50:33.106Z,2.00
2023-05-06T19:52:34.795Z,2.00
2023-05-06T19:54:36.568Z,2.33
2023-05-06T19:56:38.370Z,2.00
2023-05-06T19:58:40.119Z,2.10
2023-05-06T20:00:41.678Z,2.15
2023-05-06T20:02:43.268Z,2.40
2023-05-06T20:04:45.098Z,2.65
2023-05-06T20:06:46.662Z,2.40
2023-05-06T20:08:48.194Z,2.60
2023-05-06T20:10:50.016Z,2.42
2023-05-06T20:12:51.624Z,2.50
2023-05-06T20:14:54.171Z,2.83
2023-05-06T20:16:57.676Z,2.67
2023-05-06T20:18:59.190Z,2.33
2023-05-06T20:21:00.839Z,2.55
2023-05-06T20:23:03.281Z,2.55
2023-05-06T20:25:13.292Z,2.72
2023-05-06T20:27:14.923Z,2.72
2023-05-06T20:29:16.590Z,2.80
2023-05-06T20:31:18.119Z,2.50
2023-05-06T20:33:19.682Z,2.53
2023-05-06T20:35:21.338Z,2.53
2023-05-06T20:37:22.963Z,2.50
2023-05-06T20:39:24.684Z,2.60
2023-05-06T20:41:26.331Z,2.78
2023-05-06T20:43:27.834Z,2.65
2023-05-06T20:45:31.062Z,2.70
2023-05-06T20:47:32.749Z,2.58
2023-05-06T20:49:34.330Z,2.50
2023-05-06T20:51:36.322Z,2.60
2023-05-06T20:53:38.750Z,3.00
2023-05-06T20:55:40.390Z,3.17
2023-05-06T20:57:43.451Z,3.08
2023-05-06T20:59:45.927Z,2.90
2023-05-06T21:01:47.513Z,2.85
2023-05-06T21:03:50.115Z,2.92
2023-05-06T21:05:52.134Z,3.08
2023-05-06T21:07:53.944Z,3.42
2023-05-06T21:09:55.467Z,2.97
2023-05-06T21:11:57.017Z,3.05
2023-05-06T21:13:58.541Z,2.90
2023-05-06T21:16:00.117Z,2.88
2023-05-06T21:18:01.722Z,3.25
2023-05-06T21:20:04.934Z,3.20
2023-05-06T21:22:10.852Z,3.30
2023-05-06T21:24:12.973Z,3.30
2023-05-06T21:26:15.625Z,2.63
2023-05-06T21:28:17.274Z,3.00
2023-05-06T21:30:18.912Z,2.92
2023-05-06T21:32:20.493Z,3.28
2023-05-06T21:34:22.539Z,3.28
2023-05-06T21:36:24.350Z,3.45
2023-05-06T21:38:27.754Z,3.53
2023-05-06T21:40:29.429Z,3.60
2023-05-06T21:42:31.080Z,3.47
2023-05-06T21:44:32.692Z,3.33
2023-05-06T21:46:34.904Z,3.70
2023-05-06T21:48:36.562Z,3.05
2023-05-06T21:50:38.323Z,2.90
2023-05-06T21:52:39.900Z,3.22
2023-05-06T21:54:41.464Z,3.55
2023-05-06T21:56:43.018Z,3.40
2023-05-06T21:58:44.653Z,3.53
2023-05-06T22:00:46.355Z,3.20
2023-05-06T22:02:48.073Z,3.20
2023-05-06T22:04:49.727Z,3.63
2023-05-06T22:06:51.260Z,3.00
2023-05-06T22:08:53.388Z,2.95
2023-05-06T22:10:54.872Z,3.30
2023-05-06T22:12:56.730Z,3.17
2023-05-06T22:14:58.292Z,3.22
2023-05-06T22:17:00.010Z,3.80
2023-05-06T22:19:02.154Z,3.83
2023-05-06T22:21:04.317Z,3.55
2023-05-06T22:23:06.137Z,3.95
2023-05-06T22:25:08.259Z,4.00
2023-05-06T22:27:10.061Z,3.47
2023-05-06T22:29:11.728Z,3.50
2023-05-06T22:31:14.892Z,3.75
2023-05-06T22:33:16.585Z,3.90
2023-05-06T22:35:18.196Z,4.00
2023-05-06T22:37:19.795Z,3.72
2023-05-06T22:39:21.545Z,3.80
2023-05-06T22:41:23.080Z,3.92
2023-05-06T22:43:24.629Z,3.78
2023-05-06T22:45:26.198Z,3.83
2023-05-06T22:47:27.776Z,3.63
2023-05-06T22:49:30.086Z,3.70
2023-05-06T22:51:33.272Z,4.07
2023-05-06T22:53:34.798Z,3.65
2023-05-06T22:55:38.169Z,3.83
2023-05-06T22:57:39.968Z,3.65
2023-05-06T22:59:41.505Z,3.78
2023-05-06T23:01:43.102Z,3.63
2023-05-06T23:03:44.801Z,3.80
2023-05-06T23:05:46.466Z,3.95
2023-05-06T23:07:47.989Z,4.00
2023-05-06T23:09:49.505Z,3.70
2023-05-06T23:11:51.151Z,4.07
2023-05-06T23:13:52.650Z,4.00
2023-05-06T23:15:54.405Z,3.70
2023-05-06T23:17:56.093Z,3.80
2023-05-06T23:19:59.013Z,3.88
2023-05-06T23:22:00.564Z,3.72
2023-05-06T23:24:02.178Z,4.45
2023-05-06T23:26:03.706Z,3.83
2023-05-06T23:28:05.556Z,3.53
2023-05-06T23:30:08.024Z,4.10
2023-05-06T23:32:09.558Z,3.65
2023-05-06T23:34:11.132Z,3.80
2023-05-06T23:36:12.682Z,4.00
2023-05-06T23:38:14.206Z,4.22
2023-05-06T23:40:16.788Z,4.90
2023-05-06T23:42:18.478Z,4.28
2023-05-06T23:44:20.118Z,3.83
2023-05-06T23:46:21.684Z,4.25
2023-05-06T23:48:23.243Z,3.90
2023-05-06T23:50:24.784Z,4.35
2023-05-06T23:52:26.822Z,4.00
2023-05-06T23:54:28.353Z,4.50
2023-05-06T23:56:30.228Z,4.95
2023-05-06T23:58:31.824Z,4.70
